Time;durP1;ratioP1;P1;durP2;ratioP2;P2;SDS_P1;SDS_P2;PMS_P1;PMS_P2;Temp;Humidity;BMP_temperature;BMP_pressure;BME280_temperature;BME280_humidity;BME280_pressure;Samples;Min_cycle;Max_cycle;Signal;HPM_P1;HPM_P2
2022/03/05 00:00:08;;;;;;;9.93;7.07;;;0.00;99.90;;;;;;4999691;28;20161;-78
2022/03/05 00:02:34;;;;;;;8.60;6.35;;;0.00;99.90;;;;;;4980253;28;20520;-79
2022/03/05 00:04:59;;;;;;;9.98;7.07;;;-0.10;99.90;;;;;;4995322;28;20042;-79
2022/03/05 00:07:25;;;;;;;11.40;6.80;;;0.30;99.90;;;;;;4982061;28;20132;-79
2022/03/05 00:09:50;;;;;;;9.45;6.97;;;-0.20;99.90;;;;;;4993124;28;20073;-78
2022/03/05 00:12:16;;;;;;;10.48;7.28;;;0.20;99.90;;;;;;4966975;28;20093;-79
2022/03/05 00:14:42;;;;;;;11.52;7.07;;;0.40;99.90;;;;;;4992116;28;20496;-79
2022/03/05 00:17:07;;;;;;;11.07;6.28;;;0.50;99.90;;;;;;4999657;28;20065;-79
2022/03/05 00:19:33;;;;;;;9.80;7.53;;;-0.10;99.90;;;;;;4997016;28;20042;-80
2022/03/05 00:22:01;;;;;;;9.25;6.50;;;0.50;99.90;;;;;;4977199;28;20046;-79
2022/03/05 00:24:27;;;;;;;12.00;7.53;;;-0.40;99.90;;;;;;4997625;28;20062;-79
2022/03/05 00:26:53;;;;;;;12.57;7.28;;;-0.30;99.90;;;;;;4993867;28;20046;-79
2022/03/05 00:29:19;;;;;;;12.52;7.10;;;-0.40;99.90;;;;;;4997789;28;20144;-79
2022/03/05 00:31:44;;;;;;;12.75;6.57;;;-0.40;99.90;;;;;;4976021;28;20137;-79
2022/03/05 00:34:10;;;;;;;9.70;6.97;;;0.00;99.90;;;;;;4999458;28;20405;-80
2022/03/05 00:36:37;;;;;;;10.27;7.20;;;-0.40;99.90;;;;;;4979804;28;20050;-79
2022/03/05 00:39:04;;;;;;;9.82;6.97;;;-0.40;99.90;;;;;;4978610;28;20057;-79
2022/03/05 00:41:30;;;;;;;8.90;6.55;;;-0.10;99.90;;;;;;4981298;28;20046;-79
2022/03/05 00:43:55;;;;;;;8.70;6.22;;;-0.50;99.90;;;;;;4976829;28;20049;-79
2022/03/05 00:46:21;;;;;;;9.93;6.60;;;-0.50;99.90;;;;;;4982187;28;20046;-80
2022/03/05 00:48:46;;;;;;;11.70;6.30;;;0.00;99.90;;;;;;4991879;28;20050;-79
2022/03/05 00:51:12;;;;;;;7.57;5.93;;;-0.40;99.90;;;;;;4998713;28;20077;-79
2022/03/05 00:53:38;;;;;;;11.65;6.40;;;-0.50;99.90;;;;;;4988357;28;20038;-79
2022/03/05 00:56:04;;;;;;;8.48;6.40;;;-0.20;99.90;;;;;;4994445;28;20494;-79
2022/03/05 00:58:30;;;;;;;11.48;7.18;;;-0.50;99.90;;;;;;4980059;28;20464;-79
2022/03/05 01:00:56;;;;;;;10.63;7.32;;;-0.50;99.90;;;;;;4976838;28;20411;-79
2022/03/05 01:03:22;;;;;;;12.85;6.88;;;-0.50;99.90;;;;;;4997749;28;20088;-78
2022/03/05 01:05:48;;;;;;;9.55;6.53;;;-0.50;99.90;;;;;;4991735;28;20061;-78
2022/03/05 01:08:14;;;;;;;10.13;7.10;;;-0.60;99.90;;;;;;4982248;28;20064;-79
2022/03/05 01:10:39;;;;;;;9.18;6.22;;;-0.60;99.90;;;;;;4990965;28;20046;-79
2022/03/05 01:13:05;;;;;;;6.88;5.75;;;0.50;99.90;;;;;;4981821;28;20168;-79
2022/03/05 01:15:30;;;;;;;11.35;6.75;;;0.00;99.90;;;;;;4996896;28;20147;-79
2022/03/05 01:17:57;;;;;;;10.73;6.28;;;-0.60;99.90;;;;;;4992074;28;20073;-79
2022/03/05 01:20:23;;;;;;;10.18;5.82;;;0.10;99.90;;;;;;4965272;28;20041;-80
2022/03/05 01:22:48;;;;;;;8.48;5.85;;;-0.70;99.90;;;;;;4975898;28;20097;-78
2022/03/05 01:25:14;;;;;;;10.27;6.95;;;-0.60;99.90;;;;;;4997881;28;20053;-79
2022/03/05 01:27:56;;;;;;;8.98;5.70;;;-0.60;99.90;;;;;;5085306;27;20973;-79
2022/03/05 01:30:21;;;;;;;8.77;6.75;;;-1.30;99.90;;;;;;5067682;28;20048;-79
2022/03/05 01:32:47;;;;;;;12.48;6.60;;;-0.60;99.90;;;;;;5067176;28;20075;-79
2022/03/05 01:35:13;;;;;;;8.40;5.43;;;0.30;99.90;;;;;;5084607;28;20044;-80
2022/03/05 01:37:38;;;;;;;9.40;6.35;;;-0.60;99.90;;;;;;5067875;28;20048;-79
2022/03/05 01:40:05;;;;;;;10.25;6.47;;;-0.50;99.90;;;;;;5066504;28;20059;-78
2022/03/05 01:42:31;;;;;;;10.20;6.43;;;-0.60;99.90;;;;;;5084217;28;20044;-78
2022/03/05 01:44:56;;;;;;;7.40;5.80;;;-0.60;99.90;;;;;;5067285;28;20399;-78
2022/03/05 01:47:22;;;;;;;9.05;6.07;;;-0.60;99.90;;;;;;5083759;28;20051;-79
2022/03/05 01:49:47;;;;;;;10.82;6.00;;;-0.60;99.90;;;;;;5084183;28;20045;-79
2022/03/05 01:52:13;;;;;;;8.95;6.25;;;-0.70;99.90;;;;;;5067466;28;20048;-79
2022/03/05 01:54:39;;;;;;;10.43;6.03;;;-0.80;99.90;;;;;;5066759;28;20036;-77
2022/03/05 01:57:05;;;;;;;8.75;6.63;;;-0.70;99.90;;;;;;5083875;28;20048;-79
2022/03/05 01:59:33;;;;;;;9.55;6.05;;;1.50;99.90;;;;;;5083560;28;20048;-78
2022/03/05 02:01:59;;;;;;;11.73;6.90;;;-0.70;99.90;;;;;;5065972;28;20044;-78
2022/03/05 02:04:24;;;;;;;8.02;5.88;;;-0.70;99.90;;;;;;5084496;28;20113;-79
2022/03/05 02:06:52;;;;;;;9.45;6.80;;;0.30;99.90;;;;;;5083597;28;20055;-79
2022/03/05 02:09:18;;;;;;;10.50;6.53;;;-0.70;99.90;;;;;;5066668;28;20104;-79
2022/03/05 02:11:44;;;;;;;9.88;6.55;;;-0.70;99.90;;;;;;5066545;28;20045;-79
2022/03/05 02:14:09;;;;;;;9.25;6.40;;;0.00;99.90;;;;;;5082596;28;20047;-79
2022/03/05 02:16:35;;;;;;;9.05;7.18;;;0.20;99.90;;;;;;5083385;28;20040;-79
2022/03/05 02:19:00;;;;;;;9.63;6.78;;;-0.70;99.90;;;;;;5082905;28;20051;-79
2022/03/05 02:21:27;;;;;;;11.73;7.50;;;-0.80;99.90;;;;;;5066182;28;20084;-79
2022/03/05 02:23:53;;;;;;;12.55;7.22;;;1.70;99.90;;;;;;5083095;28;20267;-78
2022/03/05 02:26:19;;;;;;;11.55;6.60;;;-0.70;99.90;;;;;;5083537;28;20483;-79
2022/03/05 02:28:45;;;;;;;9.65;7.22;;;-0.70;99.90;;;;;;5065700;28;20154;-78
2022/03/05 02:31:11;;;;;;;10.88;7.20;;;-0.70;99.90;;;;;;5082782;28;20051;-79
2022/03/05 02:33:37;;;;;;;11.88;6.38;;;-0.80;99.90;;;;;;5066365;28;20131;-79
2022/03/05 02:36:05;;;;;;;9.00;6.93;;;-0.80;99.90;;;;;;5082362;28;20495;-78
2022/03/05 02:38:31;;;;;;;9.40;6.55;;;-0.90;99.90;;;;;;5074286;28;20453;-78
2022/03/05 02:40:57;;;;;;;10.13;7.00;;;-0.40;99.90;;;;;;5069768;28;20047;-79
2022/03/05 02:43:23;;;;;;;12.45;7.57;;;-0.40;99.90;;;;;;5052460;28;20060;-78
2022/03/05 02:45:52;;;;;;;10.95;7.13;;;0.10;99.90;;;;;;5069432;28;20127;-79
2022/03/05 02:48:18;;;;;;;11.15;6.60;;;-0.90;99.90;;;;;;5053125;28;20044;-78
2022/03/05 02:50:45;;;;;;;9.30;7.10;;;-0.90;99.90;;;;;;5060432;28;20089;-78
2022/03/05 02:53:11;;;;;;;9.85;6.97;;;-0.40;99.90;;;;;;5052843;28;20041;-78
2022/03/05 02:55:38;;;;;;;9.82;6.35;;;-0.40;99.90;;;;;;5053214;28;20427;-77
2022/03/05 02:58:03;;;;;;;11.32;6.65;;;-0.80;99.90;;;;;;5052230;28;20439;-78
2022/03/05 03:00:30;;;;;;;9.95;6.85;;;-0.10;99.90;;;;;;5069346;28;20045;-77
2022/03/05 03:02:55;;;;;;;9.20;6.47;;;-0.80;99.90;;;;;;5069556;28;20045;-78
2022/03/05 03:05:21;;;;;;;9.27;6.68;;;-0.80;99.90;;;;;;5068935;28;20119;-78
2022/03/05 03:07:48;;;;;;;12.52;6.68;;;1.10;99.90;;;;;;5069497;28;20044;-79
2022/03/05 03:10:15;;;;;;;10.00;6.60;;;-0.40;99.90;;;;;;5052299;28;20048;-79
2022/03/05 03:12:41;;;;;;;10.68;6.80;;;-0.50;99.90;;;;;;5068903;28;20078;-78
2022/03/05 03:15:08;;;;;;;9.65;6.47;;;-0.60;99.90;;;;;;5051983;28;20526;-79
2022/03/05 03:17:45;;;;;;;12.38;7.25;;;-0.70;99.90;;;;;;5052177;28;20053;-79
2022/03/05 03:20:12;;;;;;;9.40;6.57;;;-0.70;99.90;;;;;;5052204;28;20052;-80
2022/03/05 03:22:38;;;;;;;10.35;6.38;;;-0.60;99.90;;;;;;5052325;28;20507;-79
2022/03/05 03:25:04;;;;;;;9.15;6.20;;;-0.50;99.90;;;;;;5051614;28;20055;-78
2022/03/05 03:27:30;;;;;;;8.82;6.85;;;-0.70;99.90;;;;;;5068754;28;20063;-78
2022/03/05 03:29:56;;;;;;;11.05;6.60;;;-0.80;99.90;;;;;;5068533;28;20546;-79
2022/03/05 03:32:21;;;;;;;10.50;6.53;;;-0.70;99.90;;;;;;5068487;28;20127;-79
2022/03/05 03:34:47;;;;;;;9.35;6.85;;;-0.70;99.90;;;;;;5069228;28;20697;-78
2022/03/05 03:37:13;;;;;;;11.40;7.60;;;-0.80;99.90;;;;;;5051876;28;20086;-79
2022/03/05 03:39:39;;;;;;;7.75;6.10;;;-0.70;99.90;;;;;;5067845;28;20082;-79
2022/03/05 03:42:04;;;;;;;10.43;6.88;;;-0.70;99.90;;;;;;5034864;28;20083;-79
2022/03/05 03:44:30;;;;;;;10.90;6.22;;;-0.70;99.90;;;;;;5068675;28;20048;-80
2022/03/05 03:46:56;;;;;;;9.25;6.20;;;-0.60;99.90;;;;;;5068537;28;20051;-79
2022/03/05 03:49:22;;;;;;;8.13;5.88;;;-0.60;99.90;;;;;;5067484;28;20056;-79
2022/03/05 03:51:48;;;;;;;7.65;5.93;;;-0.60;99.90;;;;;;5051650;28;20055;-79
2022/03/05 03:54:14;;;;;;;10.80;6.72;;;0.40;99.90;;;;;;5067859;28;20495;-79
2022/03/05 03:56:40;;;;;;;9.27;6.00;;;-0.80;99.90;;;;;;5068761;28;20107;-79
2022/03/05 03:59:05;;;;;;;12.02;6.50;;;0.30;99.90;;;;;;5068732;28;20052;-79
2022/03/05 04:01:31;;;;;;;10.45;6.15;;;-0.70;99.90;;;;;;5067808;28;20036;-80
2022/03/05 04:03:57;;;;;;;8.18;6.05;;;0.30;99.90;;;;;;5069412;28;20059;-79
2022/03/05 04:06:22;;;;;;;9.80;6.45;;;-0.70;99.90;;;;;;5069778;28;20036;-79
2022/03/05 04:08:48;;;;;;;8.27;6.07;;;-0.80;99.90;;;;;;5060598;28;20540;-79
2022/03/05 04:11:18;;;;;;;13.27;6.20;;;-0.80;99.90;;;;;;5067643;28;20032;-79
2022/03/05 04:13:45;;;;;;;8.40;6.30;;;-0.80;99.90;;;;;;5067153;28;20064;-79
2022/03/05 04:16:12;;;;;;;8.50;5.32;;;-0.70;99.90;;;;;;5067703;28;20044;-79
2022/03/05 04:18:37;;;;;;;8.25;5.70;;;-0.80;99.90;;;;;;5051151;28;20040;-78
2022/03/05 04:21:06;;;;;;;9.48;6.40;;;-0.70;99.90;;;;;;5066842;28;20045;-79
2022/03/05 04:23:32;;;;;;;10.43;6.45;;;-0.10;99.90;;;;;;5067995;28;20072;-80
2022/03/05 04:25:58;;;;;;;10.20;6.43;;;1.20;99.90;;;;;;5050385;28;20084;-80
2022/03/05 04:28:24;;;;;;;9.32;6.63;;;-0.50;99.90;;;;;;5050815;28;20066;-79
2022/03/05 04:30:49;;;;;;;8.70;7.15;;;1.50;99.90;;;;;;5050851;28;20140;-79
2022/03/05 04:33:15;;;;;;;14.60;9.23;;;-0.60;99.90;;;;;;5050966;28;20036;-80
2022/03/05 04:35:41;;;;;;;13.80;8.82;;;-0.60;99.90;;;;;;5067076;28;20485;-80
2022/03/05 04:38:06;;;;;;;9.63;7.15;;;-0.70;99.90;;;;;;5050408;28;20058;-79
2022/03/05 04:40:32;;;;;;;11.27;7.60;;;-0.60;99.90;;;;;;5069033;28;20044;-80
2022/03/05 04:42:59;;;;;;;9.07;5.43;;;-0.70;99.90;;;;;;5066702;28;20052;-79
2022/03/05 04:45:26;;;;;;;10.38;6.80;;;-0.80;99.90;;;;;;5067444;28;20494;-79
2022/03/05 04:47:52;;;;;;;12.93;5.80;;;-0.80;99.90;;;;;;5059256;28;20080;-79
2022/03/05 04:50:18;;;;;;;8.90;6.65;;;-1.00;99.90;;;;;;5066868;28;20088;-78
2022/03/05 04:52:44;;;;;;;10.13;5.85;;;-0.90;99.90;;;;;;5068583;28;20060;-78
2022/03/05 04:55:09;;;;;;;11.60;6.32;;;-0.90;99.90;;;;;;5068950;28;20311;-79
2022/03/05 04:57:35;;;;;;;9.95;6.38;;;-0.30;99.90;;;;;;5066895;28;20037;-79
2022/03/05 05:00:03;;;;;;;10.52;6.00;;;-0.90;99.90;;;;;;5067649;28;20132;-79
2022/03/05 05:02:28;;;;;;;10.50;6.07;;;-1.10;99.90;;;;;;5067060;28;20410;-79
2022/03/05 05:04:54;;;;;;;8.85;6.50;;;-1.00;99.90;;;;;;5049793;28;20037;-78
2022/03/05 05:07:19;;;;;;;8.32;6.22;;;-0.30;99.90;;;;;;5067207;28;20036;-79
2022/03/05 05:09:45;;;;;;;8.50;5.97;;;-0.80;99.90;;;;;;5066905;28;20488;-78
2022/03/05 05:12:11;;;;;;;9.40;6.13;;;-1.10;99.90;;;;;;5066562;28;20036;-78
2022/03/05 05:14:36;;;;;;;9.32;6.00;;;-1.10;99.90;;;;;;5051118;28;20561;-78
2022/03/05 05:17:02;;;;;;;8.82;5.88;;;-1.10;99.90;;;;;;5033186;28;20499;-78
2022/03/05 05:19:29;;;;;;;10.43;5.90;;;-1.10;99.90;;;;;;5050293;28;20116;-78
2022/03/05 05:22:01;;;;;;;9.48;6.32;;;-1.10;99.90;;;;;;5049953;28;20049;-77
2022/03/05 05:24:29;;;;;;;8.18;6.30;;;-0.70;99.90;;;;;;5066787;28;20036;-78
2022/03/05 05:26:56;;;;;;;7.35;5.80;;;-0.90;99.90;;;;;;5058398;28;20252;-78
2022/03/05 05:29:21;;;;;;;7.70;5.68;;;-0.50;99.90;;;;;;5050004;28;20525;-78
2022/03/05 05:31:49;;;;;;;8.25;5.35;;;-0.90;99.90;;;;;;5066470;28;20080;-78
2022/03/05 05:34:14;;;;;;;8.43;6.32;;;-1.00;99.90;;;;;;5066894;28;20040;-79
2022/03/05 05:36:40;;;;;;;7.43;5.85;;;-0.90;99.90;;;;;;5067119;28;20040;-78
2022/03/05 05:39:07;;;;;;;8.52;5.57;;;-0.90;99.90;;;;;;5048814;28;20044;-79
2022/03/05 05:41:35;;;;;;;8.80;6.00;;;-0.90;99.90;;;;;;5050179;28;20075;-78
2022/03/05 05:44:01;;;;;;;9.43;6.13;;;-0.90;99.90;;;;;;5033003;28;20044;-78
2022/03/05 05:46:27;;;;;;;7.35;5.70;;;-0.90;99.90;;;;;;5066524;28;20052;-79
2022/03/05 05:48:52;;;;;;;8.73;5.40;;;-0.30;99.90;;;;;;5067948;28;20429;-78
2022/03/05 05:51:18;;;;;;;7.72;5.15;;;-0.90;99.90;;;;;;5066762;28;20036;-78
2022/03/05 05:53:43;;;;;;;9.25;5.57;;;-0.90;99.90;;;;;;5066267;28;20048;-77
2022/03/05 05:56:09;;;;;;;10.68;5.63;;;-1.10;99.90;;;;;;5066688;28;20036;-78
2022/03/05 05:58:35;;;;;;;7.95;5.63;;;-0.90;99.90;;;;;;5066317;28;20040;-78
2022/03/05 06:01:00;;;;;;;10.77;5.53;;;-0.90;99.90;;;;;;5065556;28;20036;-78
2022/03/05 06:03:26;;;;;;;10.20;6.40;;;-0.80;99.90;;;;;;5050361;28;20040;-78
2022/03/05 06:05:52;;;;;;;10.23;5.63;;;-1.00;99.90;;;;;;5033252;28;20032;-77
2022/03/05 06:08:18;;;;;;;9.00;5.70;;;-0.90;99.90;;;;;;5066035;28;20045;-77
2022/03/05 06:10:43;;;;;;;14.43;6.32;;;-1.00;99.90;;;;;;5066097;28;20492;-77
2022/03/05 06:13:09;;;;;;;7.03;6.00;;;-1.00;99.90;;;;;;5067623;28;20102;-77
2022/03/05 06:15:35;;;;;;;7.72;5.50;;;-1.10;99.90;;;;;;5053109;28;20072;-77
2022/03/05 06:18:00;;;;;;;10.60;5.60;;;-1.00;99.90;;;;;;5070067;28;20040;-78
2022/03/05 06:20:26;;;;;;;6.65;5.10;;;-0.10;99.90;;;;;;5069866;28;20048;-78
2022/03/05 06:22:52;;;;;;;11.43;5.72;;;-1.00;99.90;;;;;;5069766;28;20128;-78
2022/03/05 06:25:17;;;;;;;8.98;6.32;;;-0.30;99.90;;;;;;5070500;28;20044;-78
2022/03/05 06:27:44;;;;;;;8.40;5.95;;;-1.00;99.90;;;;;;5069381;28;20573;-79
2022/03/05 06:30:11;;;;;;;9.70;5.65;;;-0.70;99.90;;;;;;5069500;28;20098;-78
2022/03/05 06:32:37;;;;;;;9.32;5.70;;;-1.00;99.90;;;;;;5070313;28;20051;-79
2022/03/05 06:35:05;;;;;;;7.82;5.13;;;-0.70;99.90;;;;;;5068914;28;20033;-78
2022/03/05 06:37:31;;;;;;;7.57;5.25;;;-1.10;99.90;;;;;;5053450;28;20051;-78
2022/03/05 06:39:57;;;;;;;9.98;5.70;;;-1.00;99.90;;;;;;5069152;28;20049;-78
2022/03/05 06:42:22;;;;;;;8.77;5.20;;;-0.50;99.90;;;;;;5052614;28;20427;-78
2022/03/05 06:44:48;;;;;;;9.57;6.40;;;-1.30;99.90;;;;;;5070099;28;20037;-79
2022/03/05 06:47:13;;;;;;;9.45;5.40;;;-1.20;99.90;;;;;;5069501;28;20206;-79
2022/03/05 06:49:39;;;;;;;9.40;6.20;;;-1.20;99.90;;;;;;5052194;28;20259;-79
2022/03/05 06:52:05;;;;;;;10.18;6.30;;;-0.70;99.90;;;;;;5069213;28;20041;-79
2022/03/05 06:54:30;;;;;;;8.30;5.63;;;-1.10;99.90;;;;;;5053334;28;20032;-79
2022/03/05 06:56:56;;;;;;;10.02;5.55;;;0.50;99.90;;;;;;5035356;28;20275;-79
2022/03/05 06:59:21;;;;;;;7.53;5.47;;;-0.40;99.90;;;;;;5052934;28;20116;-78
2022/03/05 07:01:47;;;;;;;10.13;6.30;;;-0.60;99.90;;;;;;5069068;28;20049;-78
2022/03/05 07:04:13;;;;;;;13.13;6.72;;;-1.10;99.90;;;;;;5068506;28;20044;-78
2022/03/05 07:06:38;;;;;;;9.13;6.10;;;-0.40;99.90;;;;;;5069464;28;20048;-78
2022/03/05 07:09:05;;;;;;;9.60;5.82;;;-0.60;99.90;;;;;;5068863;28;20175;-79
2022/03/05 07:11:31;;;;;;;11.05;5.55;;;-1.50;99.90;;;;;;5052131;28;20101;-78
2022/03/05 07:13:56;;;;;;;13.05;6.57;;;-1.00;99.90;;;;;;5052400;28;20119;-78
2022/03/05 07:16:22;;;;;;;10.80;6.40;;;;;;;;;;5069292;28;20682;-78
2022/03/05 07:18:48;;;;;;;11.48;6.35;;;-0.90;99.90;;;;;;5068141;28;20045;-79
2022/03/05 07:21:14;;;;;;;8.35;6.13;;;-1.10;99.90;;;;;;5052475;28;20044;-79
2022/03/05 07:23:39;;;;;;;8.57;5.65;;;-0.90;99.90;;;;;;5051603;28;20036;-79
2022/03/05 07:26:05;;;;;;;12.40;6.32;;;-0.90;99.90;;;;;;5051867;28;20102;-79
2022/03/05 07:28:32;;;;;;;11.60;7.70;;;-0.20;99.90;;;;;;5069308;28;20044;-79
2022/03/05 07:30:57;;;;;;;9.43;5.88;;;-0.20;99.90;;;;;;5068972;28;20043;-79
2022/03/05 07:33:24;;;;;;;9.88;6.00;;;-0.30;99.90;;;;;;5068670;28;20044;-79
2022/03/05 07:35:49;;;;;;;9.43;5.72;;;0.10;99.90;;;;;;5068573;28;20582;-79
2022/03/05 07:38:15;;;;;;;13.52;6.03;;;-0.30;99.90;;;;;;5051430;28;20049;-79
2022/03/05 07:40:41;;;;;;;7.90;5.72;;;-0.90;99.90;;;;;;5068695;28;20036;-79
2022/03/05 07:43:06;;;;;;;10.35;7.25;;;-0.80;99.90;;;;;;5051741;28;20119;-79
2022/03/05 07:45:32;;;;;;;7.35;5.40;;;-0.70;99.90;;;;;;5068325;28;20054;-79
2022/03/05 07:47:58;;;;;;;12.40;6.07;;;-0.80;99.90;;;;;;5051468;28;20044;-79
2022/03/05 07:50:23;;;;;;;8.48;5.70;;;-0.70;99.90;;;;;;5069961;28;20419;-79
2022/03/05 07:52:49;;;;;;;11.95;6.35;;;-0.70;99.90;;;;;;5067689;28;20044;-79
2022/03/05 07:55:15;;;;;;;11.05;6.75;;;0.30;99.90;;;;;;5068380;28;20040;-79
2022/03/05 07:57:41;;;;;;;10.48;6.40;;;-0.70;99.90;;;;;;5068230;28;20032;-79
2022/03/05 08:00:07;;;;;;;10.73;6.50;;;0.40;99.90;;;;;;5050309;28;20085;-79
2022/03/05 08:02:33;;;;;;;11.80;5.88;;;-0.40;99.90;;;;;;5051485;28;20033;-79
2022/03/05 08:04:58;;;;;;;13.82;8.38;;;0.20;99.90;;;;;;5068092;28;20059;-79
2022/03/05 08:07:24;;;;;;;9.93;6.25;;;0.50;99.90;;;;;;5067845;28;20037;-79
2022/03/05 08:09:50;;;;;;;13.75;6.35;;;0.50;99.90;;;;;;5050871;28;20097;-79
2022/03/05 08:12:16;;;;;;;9.90;6.28;;;-0.20;99.90;;;;;;5068172;28;20305;-79
2022/03/05 08:14:44;;;;;;;10.27;6.57;;;-0.10;99.90;;;;;;5067833;28;20048;-79
2022/03/05 08:17:11;;;;;;;11.88;7.35;;;0.00;99.90;;;;;;5059953;28;20052;-79
2022/03/05 08:19:37;;;;;;;10.68;6.35;;;0.00;99.90;;;;;;5067781;28;20036;-80
2022/03/05 08:22:02;;;;;;;11.98;7.63;;;0.20;99.90;;;;;;5049759;28;20047;-80
2022/03/05 08:24:28;;;;;;;11.10;7.70;;;0.20;99.90;;;;;;5067627;28;20051;-80
2022/03/05 08:26:54;;;;;;;10.85;6.88;;;0.30;99.90;;;;;;5066553;28;20504;-79
2022/03/05 08:29:19;;;;;;;13.68;8.45;;;0.30;99.90;;;;;;5049245;28;20048;-79
2022/03/05 08:31:45;;;;;;;13.40;8.52;;;0.50;99.90;;;;;;5067359;28;20500;-79
2022/03/05 08:34:11;;;;;;;14.40;8.80;;;1.40;99.90;;;;;;5066762;28;20045;-78
2022/03/05 08:36:36;;;;;;;14.15;8.68;;;1.10;99.90;;;;;;5067487;28;20040;-79
2022/03/05 08:39:03;;;;;;;12.57;8.18;;;0.70;99.90;;;;;;5066756;28;20040;-80
2022/03/05 08:41:29;;;;;;;16.52;9.05;;;0.60;99.90;;;;;;5034171;28;20041;-78
2022/03/05 08:43:54;;;;;;;12.45;8.60;;;0.80;99.90;;;;;;5050349;28;20045;-77
2022/03/05 08:46:20;;;;;;;12.77;8.65;;;0.80;99.90;;;;;;5067328;28;20118;-78
2022/03/05 08:48:45;;;;;;;14.77;9.05;;;0.80;99.90;;;;;;5066463;28;20040;-79
2022/03/05 08:51:11;;;;;;;12.73;8.00;;;1.00;99.90;;;;;;5067344;28;21263;-80
2022/03/05 08:53:37;;;;;;;12.85;8.48;;;0.40;99.90;;;;;;5067562;28;20098;-78
2022/03/05 08:56:03;;;;;;;12.73;8.43;;;2.80;99.90;;;;;;5066297;28;20471;-77
2022/03/05 08:58:28;;;;;;;14.10;8.93;;;1.20;99.90;;;;;;5050326;28;20050;-78
2022/03/05 09:00:54;;;;;;;14.98;8.82;;;1.20;99.90;;;;;;5066799;28;20042;-78
2022/03/05 09:03:20;;;;;;;17.13;9.38;;;1.30;99.90;;;;;;5066615;28;20055;-79
2022/03/05 09:05:46;;;;;;;13.32;8.93;;;1.50;99.90;;;;;;5050299;28;20450;-79
2022/03/05 09:08:13;;;;;;;13.88;9.52;;;1.70;99.90;;;;;;5066874;28;20040;-78
2022/03/05 09:10:39;;;;;;;15.82;10.05;;;1.50;99.90;;;;;;5066903;28;20049;-78
2022/03/05 09:13:04;;;;;;;15.45;9.45;;;2.10;99.90;;;;;;5050315;28;20052;-78
2022/03/05 09:15:30;;;;;;;17.65;9.40;;;2.20;99.90;;;;;;5067404;28;20047;-79
2022/03/05 09:17:56;;;;;;;17.08;10.48;;;3.30;99.90;;;;;;5066228;28;20529;-78
2022/03/05 09:20:22;;;;;;;17.80;10.85;;;1.80;99.90;;;;;;5067071;28;20040;-79
2022/03/05 09:22:47;;;;;;;18.00;10.35;;;1.90;99.90;;;;;;5067180;28;20044;-79
2022/03/05 09:25:13;;;;;;;14.40;9.70;;;1.90;99.90;;;;;;5049462;28;20044;-80
2022/03/05 09:27:39;;;;;;;14.95;10.07;;;2.00;99.90;;;;;;5066587;28;20132;-79
2022/03/05 09:30:06;;;;;;;15.77;10.27;;;2.10;99.90;;;;;;5066469;28;20056;-79
2022/03/05 09:32:32;;;;;;;17.83;10.60;;;2.10;99.90;;;;;;5049527;28;20049;-79
2022/03/05 09:34:59;;;;;;;19.80;11.38;;;2.10;99.90;;;;;;5066570;28;20177;-78
2022/03/05 09:37:29;;;;;;;15.32;10.75;;;2.20;99.90;;;;;;5066365;28;20051;-79
2022/03/05 09:39:58;;;;;;;15.63;10.25;;;2.70;99.90;;;;;;5049677;28;20492;-78
2022/03/05 09:42:24;;;;;;;19.17;10.23;;;2.30;99.90;;;;;;5050245;28;20048;-79
2022/03/05 09:44:50;;;;;;;20.73;10.05;;;2.30;99.90;;;;;;5066152;28;20099;-78
2022/03/05 09:47:16;;;;;;;14.43;9.30;;;2.40;99.90;;;;;;5066680;28;20083;-79
2022/03/05 09:49:42;;;;;;;20.35;10.98;;;2.40;99.90;;;;;;5070272;28;20044;-79
2022/03/05 09:52:09;;;;;;;19.98;12.00;;;2.50;99.90;;;;;;5053208;28;20083;-78
2022/03/05 09:54:35;;;;;;;14.43;9.90;;;2.50;99.90;;;;;;5070773;28;20037;-78
2022/03/05 09:57:01;;;;;;;18.23;10.82;;;2.50;99.90;;;;;;5053807;28;20052;-78
2022/03/05 09:59:27;;;;;;;22.77;10.70;;;2.60;99.90;;;;;;5070130;28;20063;-78
2022/03/05 10:01:53;;;;;;;15.15;10.02;;;2.70;99.90;;;;;;5053537;28;20547;-78
2022/03/05 10:04:24;;;;;;;17.13;10.13;;;2.80;99.90;;;;;;5037347;28;20106;-78
2022/03/05 10:07:10;;;;;;;16.60;10.48;;;2.90;99.90;;;;;;5069391;28;20044;-78
2022/03/05 10:09:38;;;;;;;20.17;10.52;;;2.90;99.90;;;;;;5062032;28;20240;-79
2022/03/05 10:12:26;;;;;;;17.10;10.77;;;2.80;99.90;;;;;;5067789;28;20071;-79
2022/03/05 10:15:11;;;;;;;17.88;10.20;;;3.00;99.90;;;;;;5071676;28;20036;-78
2022/03/05 10:17:55;;;;;;;17.13;10.73;;;3.00;99.90;;;;;;5064317;28;20051;-79
2022/03/05 10:20:30;;;;;;;17.75;11.13;;;3.10;99.90;;;;;;5071246;28;20323;-79
2022/03/05 10:22:57;;;;;;;17.52;11.15;;;3.10;99.90;;;;;;5071145;28;20110;-79
2022/03/05 10:25:32;;;;;;;16.98;11.25;;;3.00;99.90;;;;;;5063458;28;20451;-79
2022/03/05 10:28:10;;;;;;;17.30;10.25;;;3.40;99.90;;;;;;5070264;28;20048;-79
2022/03/05 10:30:38;;;;;;;19.98;11.07;;;3.40;99.90;;;;;;5053506;28;20044;-80
2022/03/05 10:33:04;;;;;;;15.95;10.95;;;3.40;99.90;;;;;;5052995;28;20048;-78
2022/03/05 10:35:30;;;;;;;19.15;11.48;;;3.40;99.90;;;;;;5069668;28;20083;-77
2022/03/05 10:37:56;;;;;;;17.88;11.60;;;3.40;99.90;;;;;;5052524;28;20419;-77
2022/03/05 10:40:39;;;;;;;20.35;11.85;;;3.50;99.90;;;;;;5052642;28;20466;-79
2022/03/05 10:43:07;;;;;;;19.23;11.35;;;3.60;99.90;;;;;;5069771;28;20074;-80
2022/03/05 10:45:51;;;;;;;16.13;11.23;;;3.60;99.90;;;;;;5070199;28;20430;-79
2022/03/05 10:48:30;;;;;;;17.13;11.33;;;3.70;99.90;;;;;;5052259;28;20048;-79
2022/03/05 10:50:58;;;;;;;17.42;12.05;;;3.80;99.90;;;;;;5069728;28;20068;-79
2022/03/05 10:53:39;;;;;;;18.85;12.38;;;3.90;99.90;;;;;;5070016;28;20044;-79
2022/03/05 10:56:32;;;;;;;19.98;11.90;;;3.90;99.90;;;;;;5068683;28;20044;-79
2022/03/05 10:59:06;;;;;;;19.52;12.13;;;4.00;99.90;;;;;;5068568;28;20052;-79
2022/03/05 11:01:33;;;;;;;17.38;12.45;;;4.00;99.90;;;;;;5045624;28;20147;-79
2022/03/05 11:03:59;;;;;;;21.90;11.93;;;4.00;99.90;;;;;;5032095;28;20045;-78
2022/03/05 11:06:25;;;;;;;18.48;12.07;;;4.10;99.90;;;;;;5052657;28;20507;-79
2022/03/05 11:08:51;;;;;;;20.25;12.00;;;4.20;99.90;;;;;;5051393;28;20043;-79
2022/03/05 11:11:19;;;;;;;22.63;12.50;;;4.20;99.90;;;;;;5069092;28;20048;-80
2022/03/05 11:13:45;;;;;;;21.25;12.30;;;4.30;99.90;;;;;;5068821;28;20174;-80
2022/03/05 11:16:12;;;;;;;17.10;11.25;;;4.30;99.90;;;;;;5051582;28;20408;-80
2022/03/05 11:18:39;;;;;;;19.02;12.63;;;4.40;99.90;;;;;;5052360;28;20037;-78
2022/03/05 11:21:05;;;;;;;19.10;11.75;;;4.50;99.90;;;;;;5068480;28;20081;-78
2022/03/05 11:23:33;;;;;;;20.45;12.30;;;4.50;99.90;;;;;;5068683;28;20159;-79
2022/03/05 11:26:00;;;;;;;22.58;12.63;;;4.50;99.90;;;;;;5051719;28;20136;-79
2022/03/05 11:28:37;;;;;;;19.42;12.30;;;4.60;99.90;;;;;;5052375;28;20048;-79
2022/03/05 11:31:13;;;;;;;17.15;11.93;;;4.70;99.90;;;;;;5068323;28;20078;-79
2022/03/05 11:33:39;;;;;;;17.80;11.82;;;4.70;99.90;;;;;;5045675;28;20044;-78
2022/03/05 11:36:06;;;;;;;18.08;12.85;;;4.80;99.90;;;;;;5074583;28;20032;-80
2022/03/05 11:38:37;;;;;;;22.05;12.90;;;4.90;99.90;;;;;;5061362;28;20055;-78
2022/03/05 11:41:27;;;;;;;19.30;12.38;;;4.90;99.90;;;;;;5068353;28;20052;-80
2022/03/05 11:43:53;;;;;;;22.08;13.63;;;5.00;99.90;;;;;;5040935;28;20067;-78
2022/03/05 11:46:27;;;;;;;19.75;12.98;;;5.00;99.90;;;;;;5060518;28;20048;-78
2022/03/05 11:49:07;;;;;;;19.70;13.00;;;5.20;99.90;;;;;;5059270;28;20122;-79
2022/03/05 11:51:33;;;;;;;20.20;13.60;;;5.30;99.90;;;;;;5074178;28;20040;-77
2022/03/05 11:54:28;;;;;;;19.00;12.48;;;5.40;99.90;;;;;;5068031;28;20070;-79
2022/03/05 11:57:13;;;;;;;18.17;12.40;;;5.50;99.90;;;;;;5039143;28;20055;-81
2022/03/05 11:59:43;;;;;;;;;;;5.70;99.90;;;;;;5057584;28;20526;-79
2022/03/05 12:02:09;;;;;;;21.65;13.02;;;5.70;99.90;;;;;;5068059;28;19946;-80
2022/03/05 12:04:43;;;;;;;24.42;12.75;;;5.80;99.90;;;;;;5049942;28;20111;-78
2022/03/05 12:07:13;;;;;;;20.52;13.00;;;5.90;99.90;;;;;;5060667;28;20055;-79
2022/03/05 12:09:43;;;;;;;16.38;12.70;;;6.00;99.90;;;;;;5048506;28;20376;-80
2022/03/05 12:12:16;;;;;;;23.00;13.50;;;6.10;99.90;;;;;;5023825;28;20041;-84
2022/03/05 12:15:00;;;;;;;19.63;14.20;;;6.10;99.90;;;;;;5044279;28;20072;-83
2022/03/05 12:17:51;;;;;;;18.92;12.70;;;6.40;99.90;;;;;;5067732;28;20106;-79
2022/03/05 12:20:38;;;;;;;19.63;13.75;;;6.20;99.90;;;;;;5049826;28;20147;-79
2022/03/05 12:23:05;;;;;;;18.35;12.73;;;6.30;99.90;;;;;;5067119;28;20056;-78
2022/03/05 12:25:39;;;;;;;20.05;12.55;;;6.40;99.90;;;;;;5051157;28;20075;-80
2022/03/05 12:28:13;;;;;;;20.85;13.23;;;6.40;99.90;;;;;;5066449;28;20063;-79
2022/03/05 12:30:40;;;;;;;17.00;12.20;;;6.40;99.90;;;;;;5059383;28;20123;-79
2022/03/05 12:33:08;;;;;;;17.58;12.48;;;6.70;99.90;;;;;;5064829;28;20447;-79
2022/03/05 12:35:35;;;;;;;19.73;12.95;;;6.70;99.90;;;;;;5051207;28;20052;-79
2022/03/05 12:38:02;;;;;;;17.48;12.65;;;6.80;99.90;;;;;;5067124;28;20099;-80
2022/03/05 12:40:31;;;;;;;17.02;11.98;;;7.00;99.90;;;;;;5067154;28;20052;-80
2022/03/05 12:42:57;;;;;;;17.38;12.25;;;7.10;99.90;;;;;;5068795;28;20048;-79